sensor_id;sensor_type;location;lat;lon;timestamp;temperature;humidity
25871;DHT22;13689;48.590;7.752;2022-08-01T00:00:32;26.70;45.00
25871;DHT22;13689;48.590;7.752;2022-08-01T00:02:57;26.70;45.10
25871;DHT22;13689;48.590;7.752;2022-08-01T00:05:23;26.70;45.20
25871;DHT22;13689;48.590;7.752;2022-08-01T00:07:49;26.70;45.30
25871;DHT22;13689;48.590;7.752;2022-08-01T00:10:16;26.70;45.40
25871;DHT22;13689;48.590;7.752;2022-08-01T00:12:43;26.70;45.50
25871;DHT22;13689;48.590;7.752;2022-08-01T00:15:11;26.70;45.50
25871;DHT22;13689;48.590;7.752;2022-08-01T00:17:36;26.70;45.60
25871;DHT22;13689;48.590;7.752;2022-08-01T00:20:04;26.70;45.60
25871;DHT22;13689;48.590;7.752;2022-08-01T00:22:31;26.60;45.70
25871;DHT22;13689;48.590;7.752;2022-08-01T00:24:57;26.60;45.80
25871;DHT22;13689;48.590;7.752;2022-08-01T00:27:23;26.50;45.90
25871;DHT22;13689;48.590;7.752;2022-08-01T00:29:48;26.50;46.10
25871;DHT22;13689;48.590;7.752;2022-08-01T00:32:14;26.50;46.10
25871;DHT22;13689;48.590;7.752;2022-08-01T00:34:40;26.50;46.20
25871;DHT22;13689;48.590;7.752;2022-08-01T00:37:05;26.50;46.40
25871;DHT22;13689;48.590;7.752;2022-08-01T00:39:31;26.40;46.50
25871;DHT22;13689;48.590;7.752;2022-08-01T00:41:59;26.40;46.60
25871;DHT22;13689;48.590;7.752;2022-08-01T00:44:24;26.50;46.80
25871;DHT22;13689;48.590;7.752;2022-08-01T00:46:50;26.40;46.70
25871;DHT22;13689;48.590;7.752;2022-08-01T00:49:16;26.40;46.80
25871;DHT22;13689;48.590;7.752;2022-08-01T00:51:42;26.40;46.90
25871;DHT22;13689;48.590;7.752;2022-08-01T00:54:07;26.30;47.10
25871;DHT22;13689;48.590;7.752;2022-08-01T00:56:33;26.30;47.30
25871;DHT22;13689;48.590;7.752;2022-08-01T00:58:59;26.20;47.50
25871;DHT22;13689;48.590;7.752;2022-08-01T01:01:25;26.20;47.80
25871;DHT22;13689;48.590;7.752;2022-08-01T01:03:52;26.20;47.90
25871;DHT22;13689;48.590;7.752;2022-08-01T01:06:48;26.20;48.00
25871;DHT22;13689;48.590;7.752;2022-08-01T01:12:29;26.10;48.00
25871;DHT22;13689;48.590;7.752;2022-08-01T01:15:02;26.10;48.30
25871;DHT22;13689;48.590;7.752;2022-08-01T01:17:39;26.00;48.30
25871;DHT22;13689;48.590;7.752;2022-08-01T01:20:08;25.90;49.10
25871;DHT22;13689;48.590;7.752;2022-08-01T01:26:01;26.00;48.60
25871;DHT22;13689;48.590;7.752;2022-08-01T01:31:26;25.90;48.70
25871;DHT22;13689;48.590;7.752;2022-08-01T01:33:53;25.90;48.80
25871;DHT22;13689;48.590;7.752;2022-08-01T01:36:21;25.90;48.70
25871;DHT22;13689;48.590;7.752;2022-08-01T01:38:48;25.90;48.90
25871;DHT22;13689;48.590;7.752;2022-08-01T01:41:17;25.90;48.90
25871;DHT22;13689;48.590;7.752;2022-08-01T01:43:45;25.90;49.00
25871;DHT22;13689;48.590;7.752;2022-08-01T01:46:13;25.90;49.00
25871;DHT22;13689;48.590;7.752;2022-08-01T01:48:43;26.00;49.00
25871;DHT22;13689;48.590;7.752;2022-08-01T01:51:11;25.90;48.90
25871;DHT22;13689;48.590;7.752;2022-08-01T01:53:38;25.90;49.00
25871;DHT22;13689;48.590;7.752;2022-08-01T01:56:06;25.80;49.20
25871;DHT22;13689;48.590;7.752;2022-08-01T01:58:33;25.70;49.30
25871;DHT22;13689;48.590;7.752;2022-08-01T02:01:00;25.80;49.50
25871;DHT22;13689;48.590;7.752;2022-08-01T02:03:27;25.80;49.40
25871;DHT22;13689;48.590;7.752;2022-08-01T02:05:54;25.80;49.30
25871;DHT22;13689;48.590;7.752;2022-08-01T02:08:20;25.70;49.50
25871;DHT22;13689;48.590;7.752;2022-08-01T02:10:50;25.60;49.60
25871;DHT22;13689;48.590;7.752;2022-08-01T02:13:37;25.60;49.80
25871;DHT22;13689;48.590;7.752;2022-08-01T02:16:04;25.50;49.90
25871;DHT22;13689;48.590;7.752;2022-08-01T02:18:31;25.50;50.10
25871;DHT22;13689;48.590;7.752;2022-08-01T02:20:59;25.50;50.10
25871;DHT22;13689;48.590;7.752;2022-08-01T02:23:31;25.60;50.20
25871;DHT22;13689;48.590;7.752;2022-08-01T02:25:58;25.60;50.10
25871;DHT22;13689;48.590;7.752;2022-08-01T02:28:36;25.60;50.20
25871;DHT22;13689;48.590;7.752;2022-08-01T02:31:08;25.50;50.20
25871;DHT22;13689;48.590;7.752;2022-08-01T02:33:41;25.60;50.20
25871;DHT22;13689;48.590;7.752;2022-08-01T02:36:08;25.60;50.30
25871;DHT22;13689;48.590;7.752;2022-08-01T02:38:39;25.60;50.30
25871;DHT22;13689;48.590;7.752;2022-08-01T02:41:16;25.50;50.40
25871;DHT22;13689;48.590;7.752;2022-08-01T02:43:47;25.50;50.50
25871;DHT22;13689;48.590;7.752;2022-08-01T02:46:20;25.50;50.60
25871;DHT22;13689;48.590;7.752;2022-08-01T02:48:47;25.50;50.60
25871;DHT22;13689;48.590;7.752;2022-08-01T02:51:13;25.40;50.70
25871;DHT22;13689;48.590;7.752;2022-08-01T02:53:42;25.40;50.70
25871;DHT22;13689;48.590;7.752;2022-08-01T02:56:11;25.40;50.70
25871;DHT22;13689;48.590;7.752;2022-08-01T02:58:38;25.40;50.90
25871;DHT22;13689;48.590;7.752;2022-08-01T03:01:06;25.40;50.90
25871;DHT22;13689;48.590;7.752;2022-08-01T03:03:33;25.40;51.00
25871;DHT22;13689;48.590;7.752;2022-08-01T03:06:00;25.30;51.10
25871;DHT22;13689;48.590;7.752;2022-08-01T03:08:29;25.30;51.20
25871;DHT22;13689;48.590;7.752;2022-08-01T03:10:56;25.30;51.40
25871;DHT22;13689;48.590;7.752;2022-08-01T03:13:23;25.20;51.30
25871;DHT22;13689;48.590;7.752;2022-08-01T03:15:51;25.20;51.40
25871;DHT22;13689;48.590;7.752;2022-08-01T03:18:18;25.10;51.50
25871;DHT22;13689;48.590;7.752;2022-08-01T03:20:45;25.10;51.60
25871;DHT22;13689;48.590;7.752;2022-08-01T03:23:11;25.10;51.60
25871;DHT22;13689;48.590;7.752;2022-08-01T03:25:43;25.10;51.80
25871;DHT22;13689;48.590;7.752;2022-08-01T03:28:12;25.10;51.80
25871;DHT22;13689;48.590;7.752;2022-08-01T03:30:39;25.00;51.90
25871;DHT22;13689;48.590;7.752;2022-08-01T03:33:06;25.00;51.90
25871;DHT22;13689;48.590;7.752;2022-08-01T03:35:37;25.00;51.90
25871;DHT22;13689;48.590;7.752;2022-08-01T03:38:05;25.00;52.00
25871;DHT22;13689;48.590;7.752;2022-08-01T03:40:47;25.00;52.10
25871;DHT22;13689;48.590;7.752;2022-08-01T03:43:34;25.00;52.20
25871;DHT22;13689;48.590;7.752;2022-08-01T03:46:05;25.00;52.30
25871;DHT22;13689;48.590;7.752;2022-08-01T03:48:36;24.90;52.40
25871;DHT22;13689;48.590;7.752;2022-08-01T03:51:05;24.90;52.50
25871;DHT22;13689;48.590;7.752;2022-08-01T03:53:33;24.90;52.70
25871;DHT22;13689;48.590;7.752;2022-08-01T03:56:00;24.80;52.70
25871;DHT22;13689;48.590;7.752;2022-08-01T03:58:28;24.80;52.70
25871;DHT22;13689;48.590;7.752;2022-08-01T04:00:54;24.80;52.70
25871;DHT22;13689;48.590;7.752;2022-08-01T04:03:20;24.80;52.80
25871;DHT22;13689;48.590;7.752;2022-08-01T04:05:46;24.80;52.70
25871;DHT22;13689;48.590;7.752;2022-08-01T04:08:11;24.80;52.80
25871;DHT22;13689;48.590;7.752;2022-08-01T04:10:37;24.80;52.80
25871;DHT22;13689;48.590;7.752;2022-08-01T04:13:03;24.80;52.90
25871;DHT22;13689;48.590;7.752;2022-08-01T04:15:28;24.80;52.90
25871;DHT22;13689;48.590;7.752;2022-08-01T04:17:54;24.70;53.00
25871;DHT22;13689;48.590;7.752;2022-08-01T04:20:20;24.70;53.00
25871;DHT22;13689;48.590;7.752;2022-08-01T04:22:47;24.80;53.10
25871;DHT22;13689;48.590;7.752;2022-08-01T04:25:17;24.80;53.10
25871;DHT22;13689;48.590;7.752;2022-08-01T04:27:48;24.70;53.10
25871;DHT22;13689;48.590;7.752;2022-08-01T04:30:20;24.70;53.00
25871;DHT22;13689;48.590;7.752;2022-08-01T04:32:47;24.80;53.70
25871;DHT22;13689;48.590;7.752;2022-08-01T04:35:15;24.80;53.00
25871;DHT22;13689;48.590;7.752;2022-08-01T04:37:44;24.80;53.00
25871;DHT22;13689;48.590;7.752;2022-08-01T04:40:11;24.70;53.00
25871;DHT22;13689;48.590;7.752;2022-08-01T04:42:37;24.70;53.00
25871;DHT22;13689;48.590;7.752;2022-08-01T04:45:04;24.70;53.00
25871;DHT22;13689;48.590;7.752;2022-08-01T04:47:30;24.70;53.00
25871;DHT22;13689;48.590;7.752;2022-08-01T04:49:57;24.70;53.10
25871;DHT22;13689;48.590;7.752;2022-08-01T04:52:22;24.70;53.00
25871;DHT22;13689;48.590;7.752;2022-08-01T04:54:48;24.70;53.00
25871;DHT22;13689;48.590;7.752;2022-08-01T04:57:14;24.70;53.00
25871;DHT22;13689;48.590;7.752;2022-08-01T04:59:43;24.70;53.00
25871;DHT22;13689;48.590;7.752;2022-08-01T05:02:19;24.80;53.00
25871;DHT22;13689;48.590;7.752;2022-08-01T05:04:45;24.80;53.00
25871;DHT22;13689;48.590;7.752;2022-08-01T05:07:12;24.80;53.00
25871;DHT22;13689;48.590;7.752;2022-08-01T05:09:39;24.80;53.00
25871;DHT22;13689;48.590;7.752;2022-08-01T05:12:07;24.80;53.00
25871;DHT22;13689;48.590;7.752;2022-08-01T05:14:34;24.90;52.90
25871;DHT22;13689;48.590;7.752;2022-08-01T05:17:01;24.90;52.80
25871;DHT22;13689;48.590;7.752;2022-08-01T05:19:29;25.00;52.80
25871;DHT22;13689;48.590;7.752;2022-08-01T05:21:57;25.00;52.80
25871;DHT22;13689;48.590;7.752;2022-08-01T05:24:23;25.00;52.80
25871;DHT22;13689;48.590;7.752;2022-08-01T05:26:49;25.00;52.80
25871;DHT22;13689;48.590;7.752;2022-08-01T05:29:15;25.00;52.80
25871;DHT22;13689;48.590;7.752;2022-08-01T05:31:41;25.00;52.80
25871;DHT22;13689;48.590;7.752;2022-08-01T05:34:06;25.00;52.80
25871;DHT22;13689;48.590;7.752;2022-08-01T05:36:32;25.10;52.80
25871;DHT22;13689;48.590;7.752;2022-08-01T05:38:57;25.20;52.70
25871;DHT22;13689;48.590;7.752;2022-08-01T05:41:23;25.20;52.60
25871;DHT22;13689;48.590;7.752;2022-08-01T05:43:49;25.30;52.50
25871;DHT22;13689;48.590;7.752;2022-08-01T05:46:14;25.40;52.40
25871;DHT22;13689;48.590;7.752;2022-08-01T05:48:40;25.70;52.10
25871;DHT22;13689;48.590;7.752;2022-08-01T05:51:06;25.90;51.80
25871;DHT22;13689;48.590;7.752;2022-08-01T05:53:31;26.10;51.30
25871;DHT22;13689;48.590;7.752;2022-08-01T05:55:59;26.40;50.90
25871;DHT22;13689;48.590;7.752;2022-08-01T05:58:26;26.60;50.50
25871;DHT22;13689;48.590;7.752;2022-08-01T06:00:52;26.80;50.20
25871;DHT22;13689;48.590;7.752;2022-08-01T06:03:18;26.90;49.70
25871;DHT22;13689;48.590;7.752;2022-08-01T06:05:44;27.10;49.60
25871;DHT22;13689;48.590;7.752;2022-08-01T06:08:09;27.30;49.20
25871;DHT22;13689;48.590;7.752;2022-08-01T06:10:35;27.40;49.10
25871;DHT22;13689;48.590;7.752;2022-08-01T06:13:01;27.60;48.70
25871;DHT22;13689;48.590;7.752;2022-08-01T06:15:29;27.60;48.30
25871;DHT22;13689;48.590;7.752;2022-08-01T06:17:55;27.70;48.30
25871;DHT22;13689;48.590;7.752;2022-08-01T06:20:21;27.80;48.30
25871;DHT22;13689;48.590;7.752;2022-08-01T06:22:46;27.90;48.10
25871;DHT22;13689;48.590;7.752;2022-08-01T06:25:12;28.00;48.00
25871;DHT22;13689;48.590;7.752;2022-08-01T06:27:38;28.10;47.80
25871;DHT22;13689;48.590;7.752;2022-08-01T06:30:04;28.20;47.50
25871;DHT22;13689;48.590;7.752;2022-08-01T06:32:30;28.30;47.30
25871;DHT22;13689;48.590;7.752;2022-08-01T06:34:56;28.30;46.90
25871;DHT22;13689;48.590;7.752;2022-08-01T06:37:22;28.20;47.20
25871;DHT22;13689;48.590;7.752;2022-08-01T06:39:48;28.30;47.30
25871;DHT22;13689;48.590;7.752;2022-08-01T06:42:14;28.50;46.90
25871;DHT22;13689;48.590;7.752;2022-08-01T06:44:40;28.60;46.60
25871;DHT22;13689;48.590;7.752;2022-08-01T06:47:06;28.60;46.60
25871;DHT22;13689;48.590;7.752;2022-08-01T06:49:32;28.80;46.50
25871;DHT22;13689;48.590;7.752;2022-08-01T06:51:58;29.00;45.90
25871;DHT22;13689;48.590;7.752;2022-08-01T06:54:23;29.20;45.60
25871;DHT22;13689;48.590;7.752;2022-08-01T06:56:49;29.30;45.30
25871;DHT22;13689;48.590;7.752;2022-08-01T06:59:14;29.20;45.40
25871;DHT22;13689;48.590;7.752;2022-08-01T07:01:40;28.90;45.60
25871;DHT22;13689;48.590;7.752;2022-08-01T07:04:06;28.80;46.10
25871;DHT22;13689;48.590;7.752;2022-08-01T07:06:32;28.90;46.10
25871;DHT22;13689;48.590;7.752;2022-08-01T07:08:58;28.90;46.10
25871;DHT22;13689;48.590;7.752;2022-08-01T07:11:23;28.70;46.20
25871;DHT22;13689;48.590;7.752;2022-08-01T07:13:49;28.50;46.50
25871;DHT22;13689;48.590;7.752;2022-08-01T07:16:15;28.40;46.70
25871;DHT22;13689;48.590;7.752;2022-08-01T07:18:41;28.40;46.70
25871;DHT22;13689;48.590;7.752;2022-08-01T07:21:07;28.80;46.60
25871;DHT22;13689;48.590;7.752;2022-08-01T07:23:33;28.90;46.10
25871;DHT22;13689;48.590;7.752;2022-08-01T07:25:59;28.60;46.60
25871;DHT22;13689;48.590;7.752;2022-08-01T07:28:29;28.80;47.10
25871;DHT22;13689;48.590;7.752;2022-08-01T07:30:55;29.20;46.70
25871;DHT22;13689;48.590;7.752;2022-08-01T07:33:21;29.40;46.00
25871;DHT22;13689;48.590;7.752;2022-08-01T07:35:47;29.60;45.80
25871;DHT22;13689;48.590;7.752;2022-08-01T07:38:13;29.60;45.90
25871;DHT22;13689;48.590;7.752;2022-08-01T07:40:42;29.90;45.50
25871;DHT22;13689;48.590;7.752;2022-08-01T07:43:08;30.20;45.20
25871;DHT22;13689;48.590;7.752;2022-08-01T07:45:34;30.20;44.80
25871;DHT22;13689;48.590;7.752;2022-08-01T07:48:04;30.20;44.80
25871;DHT22;13689;48.590;7.752;2022-08-01T07:50:30;30.40;44.40
25871;DHT22;13689;48.590;7.752;2022-08-01T07:52:56;30.30;44.60
25871;DHT22;13689;48.590;7.752;2022-08-01T07:55:22;30.20;44.20
25871;DHT22;13689;48.590;7.752;2022-08-01T07:57:47;29.80;44.30
25871;DHT22;13689;48.590;7.752;2022-08-01T08:00:13;29.90;44.90
25871;DHT22;13689;48.590;7.752;2022-08-01T08:02:39;30.40;44.70
25871;DHT22;13689;48.590;7.752;2022-08-01T08:05:05;30.90;43.80
25871;DHT22;13689;48.590;7.752;2022-08-01T08:07:31;31.30;43.20
25871;DHT22;13689;48.590;7.752;2022-08-01T08:09:57;31.60;42.70
25871;DHT22;13689;48.590;7.752;2022-08-01T08:12:23;31.80;42.50
25871;DHT22;13689;48.590;7.752;2022-08-01T08:14:49;32.10;42.10
25871;DHT22;13689;48.590;7.752;2022-08-01T08:17:15;32.20;41.40
25871;DHT22;13689;48.590;7.752;2022-08-01T08:19:40;32.40;41.00
25871;DHT22;13689;48.590;7.752;2022-08-01T08:22:07;32.50;40.40
25871;DHT22;13689;48.590;7.752;2022-08-01T08:24:33;32.50;40.00
25871;DHT22;13689;48.590;7.752;2022-08-01T08:27:00;32.50;40.00
25871;DHT22;13689;48.590;7.752;2022-08-01T08:29:27;32.20;40.30
25871;DHT22;13689;48.590;7.752;2022-08-01T08:31:55;32.30;40.90
25871;DHT22;13689;48.590;7.752;2022-08-01T08:34:21;32.60;40.50
25871;DHT22;13689;48.590;7.752;2022-08-01T08:36:48;32.90;39.90
25871;DHT22;13689;48.590;7.752;2022-08-01T08:39:14;33.00;39.50
25871;DHT22;13689;48.590;7.752;2022-08-01T08:41:40;33.10;39.50
25871;DHT22;13689;48.590;7.752;2022-08-01T08:44:08;33.50;39.40
25871;DHT22;13689;48.590;7.752;2022-08-01T08:46:40;33.70;38.90
25871;DHT22;13689;48.590;7.752;2022-08-01T08:49:06;33.70;38.40
25871;DHT22;13689;48.590;7.752;2022-08-01T08:51:35;33.90;38.30
25871;DHT22;13689;48.590;7.752;2022-08-01T08:54:03;34.20;38.00
25871;DHT22;13689;48.590;7.752;2022-08-01T08:56:30;34.30;37.40
25871;DHT22;13689;48.590;7.752;2022-08-01T08:58:59;34.30;37.40
25871;DHT22;13689;48.590;7.752;2022-08-01T09:01:25;34.40;36.70
25871;DHT22;13689;48.590;7.752;2022-08-01T09:03:51;34.30;36.40
25871;DHT22;13689;48.590;7.752;2022-08-01T09:06:17;33.40;37.30
25871;DHT22;13689;48.590;7.752;2022-08-01T09:08:42;32.90;38.30
25871;DHT22;13689;48.590;7.752;2022-08-01T09:11:08;32.70;38.40
25871;DHT22;13689;48.590;7.752;2022-08-01T09:13:33;32.90;38.40
25871;DHT22;13689;48.590;7.752;2022-08-01T09:15:59;33.60;38.00
25871;DHT22;13689;48.590;7.752;2022-08-01T09:18:35;34.20;37.10
25871;DHT22;13689;48.590;7.752;2022-08-01T09:21:16;34.80;36.50
25871;DHT22;13689;48.590;7.752;2022-08-01T09:23:55;34.90;35.40
25871;DHT22;13689;48.590;7.752;2022-08-01T09:26:33;34.80;35.90
25871;DHT22;13689;48.590;7.752;2022-08-01T09:29:02;34.90;35.60
25871;DHT22;13689;48.590;7.752;2022-08-01T09:31:29;35.10;35.50
25871;DHT22;13689;48.590;7.752;2022-08-01T09:33:57;35.10;34.90
25871;DHT22;13689;48.590;7.752;2022-08-01T09:36:55;35.00;34.60
25871;DHT22;13689;48.590;7.752;2022-08-01T09:39:26;34.70;35.60
25871;DHT22;13689;48.590;7.752;2022-08-01T09:41:58;35.10;35.10
25871;DHT22;13689;48.590;7.752;2022-08-01T09:44:41;34.60;35.00
25871;DHT22;13689;48.590;7.752;2022-08-01T09:47:08;34.20;36.00
25871;DHT22;13689;48.590;7.752;2022-08-01T09:49:35;34.40;35.70
25871;DHT22;13689;48.590;7.752;2022-08-01T09:52:21;34.50;35.40
25871;DHT22;13689;48.590;7.752;2022-08-01T09:57:25;33.40;36.80
25871;DHT22;13689;48.590;7.752;2022-08-01T09:59:53;33.20;36.90
25871;DHT22;13689;48.590;7.752;2022-08-01T10:04:56;32.60;37.60
25871;DHT22;13689;48.590;7.752;2022-08-01T10:07:22;32.10;38.20
25871;DHT22;13689;48.590;7.752;2022-08-01T10:09:48;31.80;38.80
25871;DHT22;13689;48.590;7.752;2022-08-01T10:12:16;32.10;38.90
25871;DHT22;13689;48.590;7.752;2022-08-01T10:14:47;32.00;38.80
25871;DHT22;13689;48.590;7.752;2022-08-01T10:17:16;31.70;39.10
25871;DHT22;13689;48.590;7.752;2022-08-01T10:19:42;31.60;39.50
25871;DHT22;13689;48.590;7.752;2022-08-01T10:22:09;31.80;39.20
25871;DHT22;13689;48.590;7.752;2022-08-01T10:24:39;31.60;39.30
25871;DHT22;13689;48.590;7.752;2022-08-01T10:27:09;31.30;39.80
25871;DHT22;13689;48.590;7.752;2022-08-01T10:32:45;31.50;39.70
25871;DHT22;13689;48.590;7.752;2022-08-01T10:35:11;32.30;39.50
25871;DHT22;13689;48.590;7.752;2022-08-01T10:37:44;32.80;38.20
25871;DHT22;13689;48.590;7.752;2022-08-01T10:40:14;33.20;38.20
25871;DHT22;13689;48.590;7.752;2022-08-01T10:42:57;34.10;36.90
25871;DHT22;13689;48.590;7.752;2022-08-01T10:45:23;34.70;36.00
25871;DHT22;13689;48.590;7.752;2022-08-01T10:48:09;34.90;35.40
25871;DHT22;13689;48.590;7.752;2022-08-01T10:53:22;34.20;35.40
25871;DHT22;13689;48.590;7.752;2022-08-01T10:58:33;32.80;37.40
25871;DHT22;13689;48.590;7.752;2022-08-01T11:06:52;31.80;38.90
25871;DHT22;13689;48.590;7.752;2022-08-01T11:09:30;31.50;39.40
25871;DHT22;13689;48.590;7.752;2022-08-01T11:17:36;31.00;40.50
25871;DHT22;13689;48.590;7.752;2022-08-01T11:38:49;30.30;42.40
25871;DHT22;13689;48.590;7.752;2022-08-01T11:44:05;30.40;42.20
25871;DHT22;13689;48.590;7.752;2022-08-01T11:51:58;30.30;42.40
25871;DHT22;13689;48.590;7.752;2022-08-01T11:54:29;30.30;42.40
25871;DHT22;13689;48.590;7.752;2022-08-01T11:57:00;30.30;42.40
25871;DHT22;13689;48.590;7.752;2022-08-01T11:59:27;30.20;42.60
25871;DHT22;13689;48.590;7.752;2022-08-01T12:01:53;30.10;42.70
25871;DHT22;13689;48.590;7.752;2022-08-01T12:04:19;30.10;42.80
25871;DHT22;13689;48.590;7.752;2022-08-01T12:06:45;30.20;42.70
25871;DHT22;13689;48.590;7.752;2022-08-01T12:09:19;30.20;42.70
25871;DHT22;13689;48.590;7.752;2022-08-01T12:11:45;30.30;42.60
25871;DHT22;13689;48.590;7.752;2022-08-01T12:14:17;30.30;42.40
25871;DHT22;13689;48.590;7.752;2022-08-01T12:16:53;30.30;42.30
25871;DHT22;13689;48.590;7.752;2022-08-01T12:19:21;30.30;42.40
25871;DHT22;13689;48.590;7.752;2022-08-01T12:22:08;30.40;42.50
25871;DHT22;13689;48.590;7.752;2022-08-01T12:24:36;30.50;42.20
25871;DHT22;13689;48.590;7.752;2022-08-01T12:27:02;30.60;42.00
25871;DHT22;13689;48.590;7.752;2022-08-01T12:29:42;30.50;41.90
25871;DHT22;13689;48.590;7.752;2022-08-01T12:32:33;30.50;41.80
25871;DHT22;13689;48.590;7.752;2022-08-01T12:35:15;30.60;41.70
25871;DHT22;13689;48.590;7.752;2022-08-01T12:38:01;30.70;41.30
25871;DHT22;13689;48.590;7.752;2022-08-01T12:40:34;30.80;41.10
25871;DHT22;13689;48.590;7.752;2022-08-01T12:43:05;30.70;41.20
25871;DHT22;13689;48.590;7.752;2022-08-01T12:45:34;30.60;41.30
25871;DHT22;13689;48.590;7.752;2022-08-01T12:48:01;30.60;41.40
25871;DHT22;13689;48.590;7.752;2022-08-01T12:50:30;30.60;41.40
25871;DHT22;13689;48.590;7.752;2022-08-01T12:52:57;30.60;41.10
25871;DHT22;13689;48.590;7.752;2022-08-01T12:55:25;30.50;41.30
25871;DHT22;13689;48.590;7.752;2022-08-01T13:00:29;30.40;41.40
25871;DHT22;13689;48.590;7.752;2022-08-01T13:03:07;30.30;41.50
25871;DHT22;13689;48.590;7.752;2022-08-01T13:08:31;30.20;41.60
25871;DHT22;13689;48.590;7.752;2022-08-01T13:11:02;30.20;41.50
25871;DHT22;13689;48.590;7.752;2022-08-01T13:13:43;30.20;41.30
25871;DHT22;13689;48.590;7.752;2022-08-01T13:16:12;30.30;41.10
25871;DHT22;13689;48.590;7.752;2022-08-01T13:18:39;30.30;41.00
25871;DHT22;13689;48.590;7.752;2022-08-01T13:21:11;30.40;41.00
25871;DHT22;13689;48.590;7.752;2022-08-01T13:23:38;30.30;41.10
25871;DHT22;13689;48.590;7.752;2022-08-01T13:26:05;30.20;41.20
25871;DHT22;13689;48.590;7.752;2022-08-01T13:28:31;30.30;41.30
25871;DHT22;13689;48.590;7.752;2022-08-01T13:31:02;30.40;41.30
25871;DHT22;13689;48.590;7.752;2022-08-01T13:36:07;30.60;41.00
25871;DHT22;13689;48.590;7.752;2022-08-01T13:38:33;30.60;40.90
25871;DHT22;13689;48.590;7.752;2022-08-01T13:41:17;30.70;40.80
25871;DHT22;13689;48.590;7.752;2022-08-01T13:43:43;30.60;40.90
25871;DHT22;13689;48.590;7.752;2022-08-01T13:46:09;30.50;41.00
25871;DHT22;13689;48.590;7.752;2022-08-01T13:48:34;30.50;41.10
25871;DHT22;13689;48.590;7.752;2022-08-01T13:51:00;30.50;41.00
25871;DHT22;13689;48.590;7.752;2022-08-01T13:53:26;30.30;40.80
25871;DHT22;13689;48.590;7.752;2022-08-01T13:55:52;30.20;41.00
25871;DHT22;13689;48.590;7.752;2022-08-01T13:58:18;30.10;41.30
25871;DHT22;13689;48.590;7.752;2022-08-01T14:00:43;30.10;41.50
25871;DHT22;13689;48.590;7.752;2022-08-01T14:03:09;30.10;41.40
25871;DHT22;13689;48.590;7.752;2022-08-01T14:05:36;30.10;41.40
25871;DHT22;13689;48.590;7.752;2022-08-01T14:08:02;30.20;41.30
25871;DHT22;13689;48.590;7.752;2022-08-01T14:10:28;30.20;41.10
25871;DHT22;13689;48.590;7.752;2022-08-01T14:12:55;30.10;41.30
25871;DHT22;13689;48.590;7.752;2022-08-01T14:15:21;30.20;41.00
25871;DHT22;13689;48.590;7.752;2022-08-01T14:17:47;30.30;41.00
25871;DHT22;13689;48.590;7.752;2022-08-01T14:20:13;30.40;41.00
25871;DHT22;13689;48.590;7.752;2022-08-01T14:22:38;30.50;40.90
25871;DHT22;13689;48.590;7.752;2022-08-01T14:25:09;30.50;40.80
25871;DHT22;13689;48.590;7.752;2022-08-01T14:27:34;30.60;40.40
25871;DHT22;13689;48.590;7.752;2022-08-01T14:30:05;30.70;40.20
25871;DHT22;13689;48.590;7.752;2022-08-01T14:32:30;30.60;40.20
25871;DHT22;13689;48.590;7.752;2022-08-01T14:35:01;30.70;40.20
25871;DHT22;13689;48.590;7.752;2022-08-01T14:37:27;30.70;40.20
25871;DHT22;13689;48.590;7.752;2022-08-01T14:39:57;30.70;40.20
25871;DHT22;13689;48.590;7.752;2022-08-01T14:42:23;30.80;40.20
25871;DHT22;13689;48.590;7.752;2022-08-01T14:44:49;30.70;40.30
25871;DHT22;13689;48.590;7.752;2022-08-01T14:47:15;30.70;40.20
25871;DHT22;13689;48.590;7.752;2022-08-01T14:49:40;30.80;40.50
25871;DHT22;13689;48.590;7.752;2022-08-01T14:52:06;30.80;39.90
25871;DHT22;13689;48.590;7.752;2022-08-01T14:54:32;30.70;39.70
25871;DHT22;13689;48.590;7.752;2022-08-01T14:56:57;30.80;39.80
25871;DHT22;13689;48.590;7.752;2022-08-01T14:59:23;30.80;39.70
25871;DHT22;13689;48.590;7.752;2022-08-01T15:01:49;30.70;39.90
25871;DHT22;13689;48.590;7.752;2022-08-01T15:04:14;30.60;40.00
25871;DHT22;13689;48.590;7.752;2022-08-01T15:06:40;30.60;40.10
25871;DHT22;13689;48.590;7.752;2022-08-01T15:09:06;30.50;39.90
25871;DHT22;13689;48.590;7.752;2022-08-01T15:11:31;30.40;40.10
25871;DHT22;13689;48.590;7.752;2022-08-01T15:13:57;30.20;40.30
25871;DHT22;13689;48.590;7.752;2022-08-01T15:16:41;30.20;40.60
25871;DHT22;13689;48.590;7.752;2022-08-01T15:19:07;30.00;40.80
25871;DHT22;13689;48.590;7.752;2022-08-01T15:21:33;30.00;40.90
25871;DHT22;13689;48.590;7.752;2022-08-01T15:23:58;30.10;40.90
25871;DHT22;13689;48.590;7.752;2022-08-01T15:26:24;30.10;41.00
25871;DHT22;13689;48.590;7.752;2022-08-01T15:28:50;30.10;41.00
25871;DHT22;13689;48.590;7.752;2022-08-01T15:31:15;30.00;41.00
25871;DHT22;13689;48.590;7.752;2022-08-01T15:33:41;30.10;41.20
25871;DHT22;13689;48.590;7.752;2022-08-01T15:36:06;30.20;41.20
25871;DHT22;13689;48.590;7.752;2022-08-01T15:38:32;30.10;41.20
25871;DHT22;13689;48.590;7.752;2022-08-01T15:40:58;30.00;41.40
25871;DHT22;13689;48.590;7.752;2022-08-01T15:43:24;30.00;41.60
25871;DHT22;13689;48.590;7.752;2022-08-01T15:45:50;30.00;41.70
25871;DHT22;13689;48.590;7.752;2022-08-01T15:48:16;30.00;41.60
25871;DHT22;13689;48.590;7.752;2022-08-01T15:50:44;29.90;41.70
25871;DHT22;13689;48.590;7.752;2022-08-01T15:53:10;29.80;41.90
25871;DHT22;13689;48.590;7.752;2022-08-01T15:55:37;29.80;42.00
25871;DHT22;13689;48.590;7.752;2022-08-01T15:58:03;29.80;42.10
25871;DHT22;13689;48.590;7.752;2022-08-01T16:00:29;29.80;42.10
25871;DHT22;13689;48.590;7.752;2022-08-01T16:02:54;29.70;42.10
25871;DHT22;13689;48.590;7.752;2022-08-01T16:05:21;29.80;42.20
25871;DHT22;13689;48.590;7.752;2022-08-01T16:07:48;29.90;42.20
25871;DHT22;13689;48.590;7.752;2022-08-01T16:10:14;29.90;42.20
25871;DHT22;13689;48.590;7.752;2022-08-01T16:12:40;29.90;42.20
25871;DHT22;13689;48.590;7.752;2022-08-01T16:15:06;30.00;42.30
25871;DHT22;13689;48.590;7.752;2022-08-01T16:17:32;29.90;42.40
25871;DHT22;13689;48.590;7.752;2022-08-01T16:19:57;29.80;42.40
25871;DHT22;13689;48.590;7.752;2022-08-01T16:22:23;29.80;42.60
25871;DHT22;13689;48.590;7.752;2022-08-01T16:24:49;29.70;42.60
25871;DHT22;13689;48.590;7.752;2022-08-01T16:27:14;29.70;42.80
25871;DHT22;13689;48.590;7.752;2022-08-01T16:29:40;29.70;42.90
25871;DHT22;13689;48.590;7.752;2022-08-01T16:32:06;29.60;43.00
25871;DHT22;13689;48.590;7.752;2022-08-01T16:34:32;29.60;43.10
25871;DHT22;13689;48.590;7.752;2022-08-01T16:36:59;29.60;43.20
25871;DHT22;13689;48.590;7.752;2022-08-01T16:39:25;29.60;43.30
25871;DHT22;13689;48.590;7.752;2022-08-01T16:41:51;29.50;43.30
25871;DHT22;13689;48.590;7.752;2022-08-01T16:44:17;29.40;43.40